sensor_id;sensor_type;location;lat;lon;timestamp;P1;durP1;ratioP1;P2;durP2;ratioP2
57231;SDS011;43488;46.934;8.276;2022-09-27T00:01:05;562.53;;;291.27;;
57231;SDS011;43488;46.934;8.276;2022-09-27T00:03:35;552.30;;;360.50;;
57231;SDS011;43488;46.934;8.276;2022-09-27T00:09:03;568.15;;;291.35;;
57231;SDS011;43488;46.934;8.276;2022-09-27T00:11:34;553.05;;;376.98;;
57231;SDS011;43488;46.934;8.276;2022-09-27T00:14:05;569.33;;;296.80;;
57231;SDS011;43488;46.934;8.276;2022-09-27T00:16:35;567.92;;;290.40;;
57231;SDS011;43488;46.934;8.276;2022-09-27T00:19:05;564.50;;;293.45;;
57231;SDS011;43488;46.934;8.276;2022-09-27T00:21:44;561.75;;;384.98;;
57231;SDS011;43488;46.934;8.276;2022-09-27T00:24:12;547.08;;;359.67;;
57231;SDS011;43488;46.934;8.276;2022-09-27T00:26:43;546.13;;;356.95;;
57231;SDS011;43488;46.934;8.276;2022-09-27T00:29:13;571.38;;;306.10;;
57231;SDS011;43488;46.934;8.276;2022-09-27T00:31:42;555.33;;;379.60;;
57231;SDS011;43488;46.934;8.276;2022-09-27T00:34:17;558.20;;;378.75;;
57231;SDS011;43488;46.934;8.276;2022-09-27T00:36:49;543.10;;;358.40;;
57231;SDS011;43488;46.934;8.276;2022-09-27T00:39:18;565.58;;;292.98;;
57231;SDS011;43488;46.934;8.276;2022-09-27T00:41:45;556.03;;;374.95;;
57231;SDS011;43488;46.934;8.276;2022-09-27T00:47:00;568.67;;;297.02;;
57231;SDS011;43488;46.934;8.276;2022-09-27T00:55:39;570.97;;;298.02;;
57231;SDS011;43488;46.934;8.276;2022-09-27T00:58:14;547.60;;;358.83;;
57231;SDS011;43488;46.934;8.276;2022-09-27T01:00:47;546.35;;;374.65;;
57231;SDS011;43488;46.934;8.276;2022-09-27T01:03:23;557.22;;;377.92;;
57231;SDS011;43488;46.934;8.276;2022-09-27T01:06:10;563.65;;;283.92;;
57231;SDS011;43488;46.934;8.276;2022-09-27T01:08:39;551.42;;;374.63;;
57231;SDS011;43488;46.934;8.276;2022-09-27T01:11:13;545.80;;;360.25;;
57231;SDS011;43488;46.934;8.276;2022-09-27T01:16:50;562.38;;;288.63;;
57231;SDS011;43488;46.934;8.276;2022-09-27T01:32:01;562.90;;;294.50;;
57231;SDS011;43488;46.934;8.276;2022-09-27T01:34:52;564.17;;;292.02;;
57231;SDS011;43488;46.934;8.276;2022-09-27T01:37:44;560.05;;;381.77;;
57231;SDS011;43488;46.934;8.276;2022-09-27T01:40:27;557.58;;;371.67;;
57231;SDS011;43488;46.934;8.276;2022-09-27T01:48:55;546.13;;;363.73;;
57231;SDS011;43488;46.934;8.276;2022-09-27T01:54:15;548.50;;;359.80;;
57231;SDS011;43488;46.934;8.276;2022-09-27T01:56:50;556.97;;;376.90;;
57231;SDS011;43488;46.934;8.276;2022-09-27T02:02:13;563.35;;;282.92;;
57231;SDS011;43488;46.934;8.276;2022-09-27T02:04:44;563.42;;;291.65;;
57231;SDS011;43488;46.934;8.276;2022-09-27T02:07:36;567.22;;;298.50;;
57231;SDS011;43488;46.934;8.276;2022-09-27T02:10:30;548.80;;;366.40;;
57231;SDS011;43488;46.934;8.276;2022-09-27T02:13:54;557.72;;;292.42;;
57231;SDS011;43488;46.934;8.276;2022-09-27T02:18:48;546.28;;;378.48;;
57231;SDS011;43488;46.934;8.276;2022-09-27T02:24:49;561.40;;;289.20;;
57231;SDS011;43488;46.934;8.276;2022-09-27T02:27:35;550.45;;;368.13;;
57231;SDS011;43488;46.934;8.276;2022-09-27T02:30:15;559.90;;;379.40;;
57231;SDS011;43488;46.934;8.276;2022-09-27T02:32:43;566.95;;;297.88;;
57231;SDS011;43488;46.934;8.276;2022-09-27T02:35:16;552.92;;;279.83;;
57231;SDS011;43488;46.934;8.276;2022-09-27T02:37:55;563.35;;;297.77;;
57231;SDS011;43488;46.934;8.276;2022-09-27T02:40:25;543.05;;;357.45;;
57231;SDS011;43488;46.934;8.276;2022-09-27T02:42:59;549.38;;;366.77;;
57231;SDS011;43488;46.934;8.276;2022-09-27T03:00:38;559.70;;;288.27;;
57231;SDS011;43488;46.934;8.276;2022-09-27T03:03:25;559.45;;;287.20;;
57231;SDS011;43488;46.934;8.276;2022-09-27T03:06:05;568.80;;;298.48;;
57231;SDS011;43488;46.934;8.276;2022-09-27T03:08:37;568.78;;;293.75;;
57231;SDS011;43488;46.934;8.276;2022-09-27T03:11:06;545.20;;;372.02;;
57231;SDS011;43488;46.934;8.276;2022-09-27T03:13:33;553.67;;;374.23;;
57231;SDS011;43488;46.934;8.276;2022-09-27T03:16:05;564.25;;;291.73;;
57231;SDS011;43488;46.934;8.276;2022-09-27T03:18:32;557.08;;;278.60;;
57231;SDS011;43488;46.934;8.276;2022-09-27T03:21:00;549.35;;;364.42;;
57231;SDS011;43488;46.934;8.276;2022-09-27T03:23:28;544.60;;;356.10;;
57231;SDS011;43488;46.934;8.276;2022-09-27T03:25:57;551.97;;;370.17;;
57231;SDS011;43488;46.934;8.276;2022-09-27T03:28:24;558.60;;;286.02;;
57231;SDS011;43488;46.934;8.276;2022-09-27T03:30:55;568.05;;;295.33;;
57231;SDS011;43488;46.934;8.276;2022-09-27T03:33:22;565.30;;;296.80;;
57231;SDS011;43488;46.934;8.276;2022-09-27T03:35:50;561.67;;;297.38;;
57231;SDS011;43488;46.934;8.276;2022-09-27T03:38:17;553.50;;;373.23;;
57231;SDS011;43488;46.934;8.276;2022-09-27T03:40:44;555.10;;;275.83;;
57231;SDS011;43488;46.934;8.276;2022-09-27T03:43:11;561.50;;;280.30;;
57231;SDS011;43488;46.934;8.276;2022-09-27T03:45:39;568.50;;;299.83;;
57231;SDS011;43488;46.934;8.276;2022-09-27T03:48:10;571.30;;;298.42;;
57231;SDS011;43488;46.934;8.276;2022-09-27T03:50:38;545.75;;;355.85;;
57231;SDS011;43488;46.934;8.276;2022-09-27T03:53:06;552.20;;;370.88;;
57231;SDS011;43488;46.934;8.276;2022-09-27T03:55:34;548.47;;;381.05;;
57231;SDS011;43488;46.934;8.276;2022-09-27T03:58:01;544.15;;;360.15;;
57231;SDS011;43488;46.934;8.276;2022-09-27T04:00:29;553.05;;;284.17;;
57231;SDS011;43488;46.934;8.276;2022-09-27T04:02:58;572.00;;;310.15;;
57231;SDS011;43488;46.934;8.276;2022-09-27T04:05:26;559.47;;;382.77;;
57231;SDS011;43488;46.934;8.276;2022-09-27T04:07:55;546.85;;;362.45;;
57231;SDS011;43488;46.934;8.276;2022-09-27T04:10:23;549.90;;;384.60;;
57231;SDS011;43488;46.934;8.276;2022-09-27T04:12:51;541.60;;;350.98;;
57231;SDS011;43488;46.934;8.276;2022-09-27T04:15:19;548.78;;;365.85;;
57231;SDS011;43488;46.934;8.276;2022-09-27T04:17:46;540.28;;;368.25;;
57231;SDS011;43488;46.934;8.276;2022-09-27T04:20:14;560.15;;;291.38;;
57231;SDS011;43488;46.934;8.276;2022-09-27T04:22:42;559.90;;;289.88;;
57231;SDS011;43488;46.934;8.276;2022-09-27T04:25:10;564.78;;;291.27;;
57231;SDS011;43488;46.934;8.276;2022-09-27T04:27:39;556.20;;;283.35;;
57231;SDS011;43488;46.934;8.276;2022-09-27T04:30:11;558.60;;;294.55;;
57231;SDS011;43488;46.934;8.276;2022-09-27T04:32:43;545.83;;;360.17;;
57231;SDS011;43488;46.934;8.276;2022-09-27T04:35:11;549.63;;;357.53;;
57231;SDS011;43488;46.934;8.276;2022-09-27T04:37:58;557.67;;;378.85;;
57231;SDS011;43488;46.934;8.276;2022-09-27T04:40:25;556.60;;;291.73;;
57231;SDS011;43488;46.934;8.276;2022-09-27T04:42:53;562.80;;;291.65;;
57231;SDS011;43488;46.934;8.276;2022-09-27T04:45:21;559.67;;;295.50;;
57231;SDS011;43488;46.934;8.276;2022-09-27T04:47:49;554.30;;;283.45;;
57231;SDS011;43488;46.934;8.276;2022-09-27T04:50:18;540.50;;;349.02;;
57231;SDS011;43488;46.934;8.276;2022-09-27T04:52:52;547.20;;;364.45;;
57231;SDS011;43488;46.934;8.276;2022-09-27T04:55:20;562.08;;;306.35;;
57231;SDS011;43488;46.934;8.276;2022-09-27T04:57:48;561.25;;;281.35;;
57231;SDS011;43488;46.934;8.276;2022-09-27T05:00:17;563.70;;;289.77;;
57231;SDS011;43488;46.934;8.276;2022-09-27T05:02:45;565.03;;;296.52;;
57231;SDS011;43488;46.934;8.276;2022-09-27T05:05:16;546.30;;;358.20;;
57231;SDS011;43488;46.934;8.276;2022-09-27T05:07:43;538.72;;;352.08;;
57231;SDS011;43488;46.934;8.276;2022-09-27T05:10:10;542.05;;;363.95;;
57231;SDS011;43488;46.934;8.276;2022-09-27T05:12:37;551.08;;;286.65;;
57231;SDS011;43488;46.934;8.276;2022-09-27T05:15:05;537.53;;;358.50;;
57231;SDS011;43488;46.934;8.276;2022-09-27T05:17:34;550.97;;;283.50;;
57231;SDS011;43488;46.934;8.276;2022-09-27T05:20:02;542.00;;;270.08;;
57231;SDS011;43488;46.934;8.276;2022-09-27T05:22:30;533.40;;;366.17;;
57231;SDS011;43488;46.934;8.276;2022-09-27T05:24:57;549.42;;;278.38;;
57231;SDS011;43488;46.934;8.276;2022-09-27T05:27:25;545.42;;;276.40;;
57231;SDS011;43488;46.934;8.276;2022-09-27T05:29:52;556.63;;;290.30;;
57231;SDS011;43488;46.934;8.276;2022-09-27T05:32:21;541.55;;;273.27;;
57231;SDS011;43488;46.934;8.276;2022-09-27T05:34:49;544.80;;;277.42;;
57231;SDS011;43488;46.934;8.276;2022-09-27T05:37:19;544.17;;;273.42;;
57231;SDS011;43488;46.934;8.276;2022-09-27T05:39:47;519.53;;;334.65;;
57231;SDS011;43488;46.934;8.276;2022-09-27T05:42:15;519.90;;;349.77;;
57231;SDS011;43488;46.934;8.276;2022-09-27T05:44:43;537.28;;;267.55;;
57231;SDS011;43488;46.934;8.276;2022-09-27T05:47:13;515.53;;;344.02;;
57231;SDS011;43488;46.934;8.276;2022-09-27T05:49:41;525.13;;;358.60;;
57231;SDS011;43488;46.934;8.276;2022-09-27T05:52:08;507.98;;;330.75;;
57231;SDS011;43488;46.934;8.276;2022-09-27T05:54:37;510.60;;;344.73;;
57231;SDS011;43488;46.934;8.276;2022-09-27T05:57:04;503.25;;;331.25;;
57231;SDS011;43488;46.934;8.276;2022-09-27T05:59:34;498.02;;;326.63;;
57231;SDS011;43488;46.934;8.276;2022-09-27T06:02:02;523.95;;;243.10;;
57231;SDS011;43488;46.934;8.276;2022-09-27T06:04:29;486.55;;;295.77;;
57231;SDS011;43488;46.934;8.276;2022-09-27T06:06:57;496.90;;;308.05;;
57231;SDS011;43488;46.934;8.276;2022-09-27T06:09:24;529.78;;;246.00;;
57231;SDS011;43488;46.934;8.276;2022-09-27T06:11:54;513.17;;;350.15;;
57231;SDS011;43488;46.934;8.276;2022-09-27T06:14:21;504.17;;;335.08;;
57231;SDS011;43488;46.934;8.276;2022-09-27T06:16:49;535.92;;;265.90;;
57231;SDS011;43488;46.934;8.276;2022-09-27T06:19:17;530.13;;;246.68;;
57231;SDS011;43488;46.934;8.276;2022-09-27T06:21:47;508.83;;;337.83;;
57231;SDS011;43488;46.934;8.276;2022-09-27T06:24:16;512.70;;;340.35;;
57231;SDS011;43488;46.934;8.276;2022-09-27T06:26:43;530.25;;;245.80;;
57231;SDS011;43488;46.934;8.276;2022-09-27T06:29:11;522.60;;;362.75;;
57231;SDS011;43488;46.934;8.276;2022-09-27T06:31:38;534.85;;;254.60;;
57231;SDS011;43488;46.934;8.276;2022-09-27T06:34:06;539.58;;;267.13;;
57231;SDS011;43488;46.934;8.276;2022-09-27T06:36:34;530.75;;;257.58;;
57231;SDS011;43488;46.934;8.276;2022-09-27T06:39:01;511.00;;;340.75;;
57231;SDS011;43488;46.934;8.276;2022-09-27T06:41:29;514.50;;;346.10;;
57231;SDS011;43488;46.934;8.276;2022-09-27T06:43:56;529.35;;;254.85;;
57231;SDS011;43488;46.934;8.276;2022-09-27T06:46:23;517.92;;;352.42;;
57231;SDS011;43488;46.934;8.276;2022-09-27T06:48:51;541.78;;;273.75;;
57231;SDS011;43488;46.934;8.276;2022-09-27T06:51:18;535.75;;;261.17;;
57231;SDS011;43488;46.934;8.276;2022-09-27T06:53:45;542.47;;;262.77;;
57231;SDS011;43488;46.934;8.276;2022-09-27T06:56:12;538.78;;;253.43;;
57231;SDS011;43488;46.934;8.276;2022-09-27T06:58:40;530.30;;;250.77;;
57231;SDS011;43488;46.934;8.276;2022-09-27T07:01:26;533.03;;;257.27;;
57231;SDS011;43488;46.934;8.276;2022-09-27T07:03:55;543.22;;;265.83;;
57231;SDS011;43488;46.934;8.276;2022-09-27T07:06:22;532.67;;;254.63;;
57231;SDS011;43488;46.934;8.276;2022-09-27T07:08:50;508.48;;;334.73;;
57231;SDS011;43488;46.934;8.276;2022-09-27T07:11:19;511.40;;;343.23;;
57231;SDS011;43488;46.934;8.276;2022-09-27T07:13:48;529.72;;;256.20;;
57231;SDS011;43488;46.934;8.276;2022-09-27T07:16:17;516.95;;;346.05;;
57231;SDS011;43488;46.934;8.276;2022-09-27T07:18:45;525.80;;;353.70;;
57231;SDS011;43488;46.934;8.276;2022-09-27T07:21:15;508.33;;;339.88;;
57231;SDS011;43488;46.934;8.276;2022-09-27T07:23:42;507.58;;;337.50;;
57231;SDS011;43488;46.934;8.276;2022-09-27T07:26:09;519.50;;;340.15;;
57231;SDS011;43488;46.934;8.276;2022-09-27T07:28:38;531.33;;;257.17;;
57231;SDS011;43488;46.934;8.276;2022-09-27T07:31:07;518.25;;;352.23;;
57231;SDS011;43488;46.934;8.276;2022-09-27T07:33:34;511.85;;;323.05;;
57231;SDS011;43488;46.934;8.276;2022-09-27T07:36:06;533.50;;;255.75;;
57231;SDS011;43488;46.934;8.276;2022-09-27T07:38:39;545.63;;;269.58;;
57231;SDS011;43488;46.934;8.276;2022-09-27T07:41:10;523.03;;;344.48;;
57231;SDS011;43488;46.934;8.276;2022-09-27T07:43:40;508.80;;;337.35;;
57231;SDS011;43488;46.934;8.276;2022-09-27T07:46:10;547.17;;;279.08;;
57231;SDS011;43488;46.934;8.276;2022-09-27T07:48:38;517.22;;;340.30;;
57231;SDS011;43488;46.934;8.276;2022-09-27T07:51:06;516.60;;;348.33;;
57231;SDS011;43488;46.934;8.276;2022-09-27T07:53:36;552.63;;;275.20;;
57231;SDS011;43488;46.934;8.276;2022-09-27T07:56:04;519.05;;;335.83;;
57231;SDS011;43488;46.934;8.276;2022-09-27T07:58:32;548.88;;;274.13;;
57231;SDS011;43488;46.934;8.276;2022-09-27T08:00:59;512.72;;;330.67;;
57231;SDS011;43488;46.934;8.276;2022-09-27T08:03:28;546.25;;;273.00;;
57231;SDS011;43488;46.934;8.276;2022-09-27T08:06:00;540.05;;;257.58;;
57231;SDS011;43488;46.934;8.276;2022-09-27T08:10:56;518.83;;;331.23;;
57231;SDS011;43488;46.934;8.276;2022-09-27T08:13:24;545.90;;;260.05;;
57231;SDS011;43488;46.934;8.276;2022-09-27T08:15:51;538.30;;;365.45;;
57231;SDS011;43488;46.934;8.276;2022-09-27T08:18:18;524.00;;;344.10;;
57231;SDS011;43488;46.934;8.276;2022-09-27T08:20:47;523.03;;;338.40;;
57231;SDS011;43488;46.934;8.276;2022-09-27T08:23:14;538.65;;;256.65;;
57231;SDS011;43488;46.934;8.276;2022-09-27T08:25:41;540.08;;;259.80;;
57231;SDS011;43488;46.934;8.276;2022-09-27T08:28:09;523.72;;;343.10;;
57231;SDS011;43488;46.934;8.276;2022-09-27T08:30:36;519.60;;;334.70;;
57231;SDS011;43488;46.934;8.276;2022-09-27T08:33:04;536.22;;;366.45;;
57231;SDS011;43488;46.934;8.276;2022-09-27T08:35:31;530.38;;;352.02;;
57231;SDS011;43488;46.934;8.276;2022-09-27T08:37:59;529.10;;;349.77;;
57231;SDS011;43488;46.934;8.276;2022-09-27T08:52:15;520.33;;;341.58;;
57231;SDS011;43488;46.934;8.276;2022-09-27T08:55:21;557.10;;;287.27;;
57231;SDS011;43488;46.934;8.276;2022-09-27T08:58:25;550.85;;;266.08;;
57231;SDS011;43488;46.934;8.276;2022-09-27T09:01:02;528.50;;;351.55;;
57231;SDS011;43488;46.934;8.276;2022-09-27T09:03:51;520.00;;;333.95;;
57231;SDS011;43488;46.934;8.276;2022-09-27T09:06:24;530.97;;;352.42;;
57231;SDS011;43488;46.934;8.276;2022-09-27T09:09:28;527.55;;;346.70;;
57231;SDS011;43488;46.934;8.276;2022-09-27T09:15:53;528.65;;;347.70;;
57231;SDS011;43488;46.934;8.276;2022-09-27T09:18:33;542.78;;;257.77;;
57231;SDS011;43488;46.934;8.276;2022-09-27T09:34:07;556.03;;;268.73;;
57231;SDS011;43488;46.934;8.276;2022-09-27T09:36:55;550.88;;;272.15;;
57231;SDS011;43488;46.934;8.276;2022-09-27T09:39:53;531.13;;;342.38;;
57231;SDS011;43488;46.934;8.276;2022-09-27T09:45:40;519.40;;;336.80;;
57231;SDS011;43488;46.934;8.276;2022-09-27T09:48:28;519.28;;;331.90;;
57231;SDS011;43488;46.934;8.276;2022-09-27T09:51:12;556.00;;;265.08;;
57231;SDS011;43488;46.934;8.276;2022-09-27T09:59:03;551.60;;;269.33;;
57231;SDS011;43488;46.934;8.276;2022-09-27T10:02:11;547.00;;;260.85;;
57231;SDS011;43488;46.934;8.276;2022-09-27T10:04:53;548.30;;;264.33;;
57231;SDS011;43488;46.934;8.276;2022-09-27T10:07:21;554.65;;;261.75;;
57231;SDS011;43488;46.934;8.276;2022-09-27T10:09:51;533.30;;;346.88;;
57231;SDS011;43488;46.934;8.276;2022-09-27T10:12:21;566.50;;;283.95;;
57231;SDS011;43488;46.934;8.276;2022-09-27T10:14:49;553.10;;;271.65;;
57231;SDS011;43488;46.934;8.276;2022-09-27T10:17:20;542.65;;;360.85;;
57231;SDS011;43488;46.934;8.276;2022-09-27T10:19:52;562.88;;;289.92;;
57231;SDS011;43488;46.934;8.276;2022-09-27T10:22:25;556.70;;;270.52;;
57231;SDS011;43488;46.934;8.276;2022-09-27T10:25:06;563.47;;;280.20;;
57231;SDS011;43488;46.934;8.276;2022-09-27T10:27:43;560.03;;;273.30;;
57231;SDS011;43488;46.934;8.276;2022-09-27T10:30:21;560.55;;;271.60;;
57231;SDS011;43488;46.934;8.276;2022-09-27T10:32:55;527.42;;;336.50;;
57231;SDS011;43488;46.934;8.276;2022-09-27T10:38:15;527.10;;;337.48;;
57231;SDS011;43488;46.934;8.276;2022-09-27T10:40:47;573.90;;;284.15;;
57231;SDS011;43488;46.934;8.276;2022-09-27T10:43:31;532.30;;;340.27;;
57231;SDS011;43488;46.934;8.276;2022-09-27T10:49:06;565.45;;;275.55;;
57231;SDS011;43488;46.934;8.276;2022-09-27T10:51:45;542.83;;;354.50;;
57231;SDS011;43488;46.934;8.276;2022-09-27T10:54:21;541.15;;;344.90;;
57231;SDS011;43488;46.934;8.276;2022-09-27T10:56:56;532.95;;;324.70;;
57231;SDS011;43488;46.934;8.276;2022-09-27T10:59:31;558.03;;;240.15;;
57231;SDS011;43488;46.934;8.276;2022-09-27T11:02:02;566.88;;;254.80;;
57231;SDS011;43488;46.934;8.276;2022-09-27T11:04:33;586.72;;;289.40;;
57231;SDS011;43488;46.934;8.276;2022-09-27T11:07:20;548.00;;;349.98;;
57231;SDS011;43488;46.934;8.276;2022-09-27T11:09:52;559.28;;;258.38;;
57231;SDS011;43488;46.934;8.276;2022-09-27T11:12:29;577.55;;;277.60;;
57231;SDS011;43488;46.934;8.276;2022-09-27T11:15:01;555.88;;;252.75;;
57231;SDS011;43488;46.934;8.276;2022-09-27T11:17:34;526.33;;;327.90;;
57231;SDS011;43488;46.934;8.276;2022-09-27T11:26:21;539.53;;;343.45;;
57231;SDS011;43488;46.934;8.276;2022-09-27T11:31:57;541.85;;;237.13;;
57231;SDS011;43488;46.934;8.276;2022-09-27T11:38:09;546.47;;;245.95;;
57231;SDS011;43488;46.934;8.276;2022-09-27T11:41:26;519.70;;;330.67;;
57231;SDS011;43488;46.934;8.276;2022-09-27T11:44:32;523.38;;;328.30;;
57231;SDS011;43488;46.934;8.276;2022-09-27T11:50:31;545.35;;;239.80;;
57231;SDS011;43488;46.934;8.276;2022-09-27T11:53:19;557.58;;;260.13;;
57231;SDS011;43488;46.934;8.276;2022-09-27T11:59:34;523.72;;;329.50;;
57231;SDS011;43488;46.934;8.276;2022-09-27T12:02:50;519.00;;;327.85;;
57231;SDS011;43488;46.934;8.276;2022-09-27T12:06:00;520.35;;;333.25;;
57231;SDS011;43488;46.934;8.276;2022-09-27T12:11:42;557.45;;;259.10;;
57231;SDS011;43488;46.934;8.276;2022-09-27T12:14:39;524.03;;;325.67;;
57231;SDS011;43488;46.934;8.276;2022-09-27T12:17:25;540.58;;;349.83;;
57231;SDS011;43488;46.934;8.276;2022-09-27T12:19:59;557.60;;;250.85;;
57231;SDS011;43488;46.934;8.276;2022-09-27T12:22:57;546.20;;;237.60;;
57231;SDS011;43488;46.934;8.276;2022-09-27T12:25:37;562.80;;;273.48;;
57231;SDS011;43488;46.934;8.276;2022-09-27T12:31:26;553.63;;;255.45;;
57231;SDS011;43488;46.934;8.276;2022-09-27T12:37:27;532.65;;;342.83;;
57231;SDS011;43488;46.934;8.276;2022-09-27T12:40:27;533.45;;;342.83;;
57231;SDS011;43488;46.934;8.276;2022-09-27T12:51:58;551.65;;;256.75;;
57231;SDS011;43488;46.934;8.276;2022-09-27T13:00:42;538.67;;;349.55;;
57231;SDS011;43488;46.934;8.276;2022-09-27T13:06:33;525.85;;;328.45;;
57231;SDS011;43488;46.934;8.276;2022-09-27T13:12:30;531.90;;;342.35;;
57231;SDS011;43488;46.934;8.276;2022-09-27T13:15:03;563.47;;;265.73;;
57231;SDS011;43488;46.934;8.276;2022-09-27T13:22:59;534.63;;;343.17;;
57231;SDS011;43488;46.934;8.276;2022-09-27T13:25:57;535.35;;;351.48;;
57231;SDS011;43488;46.934;8.276;2022-09-27T13:31:14;564.20;;;271.10;;
57231;SDS011;43488;46.934;8.276;2022-09-27T13:33:46;550.90;;;247.25;;
57231;SDS011;43488;46.934;8.276;2022-09-27T13:36:20;569.55;;;273.55;;
57231;SDS011;43488;46.934;8.276;2022-09-27T13:38:56;550.20;;;246.35;;
57231;SDS011;43488;46.934;8.276;2022-09-27T13:41:51;544.72;;;346.08;;
57231;SDS011;43488;46.934;8.276;2022-09-27T13:44:37;567.90;;;271.55;;
57231;SDS011;43488;46.934;8.276;2022-09-27T13:47:46;541.60;;;355.95;;
57231;SDS011;43488;46.934;8.276;2022-09-27T13:50:25;547.05;;;244.48;;
57231;SDS011;43488;46.934;8.276;2022-09-27T13:53:05;539.65;;;348.92;;
57231;SDS011;43488;46.934;8.276;2022-09-27T13:55:51;532.28;;;343.70;;
57231;SDS011;43488;46.934;8.276;2022-09-27T14:01:24;558.78;;;251.85;;
57231;SDS011;43488;46.934;8.276;2022-09-27T14:03:59;528.00;;;328.60;;
57231;SDS011;43488;46.934;8.276;2022-09-27T14:07:09;568.15;;;266.55;;
57231;SDS011;43488;46.934;8.276;2022-09-27T14:09:43;570.83;;;275.67;;
57231;SDS011;43488;46.934;8.276;2022-09-27T14:12:16;534.90;;;336.50;;
57231;SDS011;43488;46.934;8.276;2022-09-27T14:14:47;561.35;;;265.48;;
57231;SDS011;43488;46.934;8.276;2022-09-27T14:17:17;565.47;;;264.08;;
57231;SDS011;43488;46.934;8.276;2022-09-27T14:19:47;549.97;;;364.75;;
57231;SDS011;43488;46.934;8.276;2022-09-27T14:22:16;536.45;;;341.25;;
57231;SDS011;43488;46.934;8.276;2022-09-27T14:24:47;549.78;;;238.75;;
57231;SDS011;43488;46.934;8.276;2022-09-27T14:30:11;537.50;;;345.05;;
57231;SDS011;43488;46.934;8.276;2022-09-27T14:32:49;555.78;;;248.00;;
57231;SDS011;43488;46.934;8.276;2022-09-27T14:35:27;538.30;;;337.42;;
57231;SDS011;43488;46.934;8.276;2022-09-27T14:38:15;556.65;;;364.95;;
57231;SDS011;43488;46.934;8.276;2022-09-27T14:43:23;533.70;;;331.25;;
57231;SDS011;43488;46.934;8.276;2022-09-27T14:45:52;566.97;;;267.75;;
57231;SDS011;43488;46.934;8.276;2022-09-27T14:48:29;558.03;;;248.23;;
57231;SDS011;43488;46.934;8.276;2022-09-27T14:51:03;544.70;;;359.35;;
57231;SDS011;43488;46.934;8.276;2022-09-27T14:53:47;564.55;;;259.77;;
57231;SDS011;43488;46.934;8.276;2022-09-27T14:56:25;568.30;;;253.52;;
57231;SDS011;43488;46.934;8.276;2022-09-27T14:58:58;543.67;;;328.50;;
57231;SDS011;43488;46.934;8.276;2022-09-27T15:01:50;579.05;;;279.05;;
57231;SDS011;43488;46.934;8.276;2022-09-27T15:04:19;558.65;;;340.67;;
57231;SDS011;43488;46.934;8.276;2022-09-27T15:06:49;597.10;;;302.67;;
57231;SDS011;43488;46.934;8.276;2022-09-27T15:09:16;551.58;;;324.08;;
57231;SDS011;43488;46.934;8.276;2022-09-27T15:11:46;559.95;;;341.73;;
57231;SDS011;43488;46.934;8.276;2022-09-27T15:14:19;580.17;;;253.30;;
57231;SDS011;43488;46.934;8.276;2022-09-27T15:16:51;558.22;;;334.40;;
57231;SDS011;43488;46.934;8.276;2022-09-27T15:19:23;581.17;;;263.13;;
57231;SDS011;43488;46.934;8.276;2022-09-27T15:21:55;554.42;;;330.33;;
57231;SDS011;43488;46.934;8.276;2022-09-27T15:24:44;602.13;;;345.10;;
57231;SDS011;43488;46.934;8.276;2022-09-27T15:27:13;596.55;;;389.63;;
57231;SDS011;43488;46.934;8.276;2022-09-27T15:29:48;612.20;;;316.88;;
57231;SDS011;43488;46.934;8.276;2022-09-27T15:32:19;601.10;;;408.00;;
57231;SDS011;43488;46.934;8.276;2022-09-27T15:34:49;576.67;;;382.17;;
57231;SDS011;43488;46.934;8.276;2022-09-27T15:37:32;580.40;;;385.70;;
57231;SDS011;43488;46.934;8.276;2022-09-27T15:42:59;587.63;;;310.17;;
57231;SDS011;43488;46.934;8.276;2022-09-27T15:45:34;580.65;;;299.83;;
57231;SDS011;43488;46.934;8.276;2022-09-27T15:50:40;580.78;;;273.63;;
57231;SDS011;43488;46.934;8.276;2022-09-27T15:53:08;571.15;;;259.83;;
57231;SDS011;43488;46.934;8.276;2022-09-27T15:55:40;556.22;;;373.83;;
57231;SDS011;43488;46.934;8.276;2022-09-27T15:58:14;553.03;;;350.33;;
57231;SDS011;43488;46.934;8.276;2022-09-27T16:01:05;570.35;;;284.85;;
57231;SDS011;43488;46.934;8.276;2022-09-27T16:03:32;550.40;;;371.30;;
57231;SDS011;43488;46.934;8.276;2022-09-27T16:06:01;563.70;;;387.92;;
57231;SDS011;43488;46.934;8.276;2022-09-27T16:08:30;574.25;;;295.75;;
57231;SDS011;43488;46.934;8.276;2022-09-27T16:10:58;571.55;;;290.27;;
57231;SDS011;43488;46.934;8.276;2022-09-27T16:13:28;576.05;;;301.38;;
57231;SDS011;43488;46.934;8.276;2022-09-27T16:15:55;564.28;;;279.02;;
57231;SDS011;43488;46.934;8.276;2022-09-27T16:18:23;575.08;;;298.48;;
57231;SDS011;43488;46.934;8.276;2022-09-27T16:20:51;561.97;;;281.33;;
57231;SDS011;43488;46.934;8.276;2022-09-27T16:23:18;571.22;;;304.02;;
57231;SDS011;43488;46.934;8.276;2022-09-27T16:25:45;567.00;;;279.83;;
57231;SDS011;43488;46.934;8.276;2022-09-27T16:28:12;552.30;;;374.77;;
57231;SDS011;43488;46.934;8.276;2022-09-27T16:30:39;573.45;;;295.33;;
57231;SDS011;43488;46.934;8.276;2022-09-27T16:33:07;547.90;;;364.05;;
57231;SDS011;43488;46.934;8.276;2022-09-27T16:35:34;562.95;;;283.15;;
57231;SDS011;43488;46.934;8.276;2022-09-27T16:38:04;550.00;;;370.33;;
57231;SDS011;43488;46.934;8.276;2022-09-27T16:40:31;571.85;;;292.00;;
57231;SDS011;43488;46.934;8.276;2022-09-27T16:42:58;573.03;;;298.33;;
57231;SDS011;43488;46.934;8.276;2022-09-27T16:45:26;540.92;;;355.65;;
57231;SDS011;43488;46.934;8.276;2022-09-27T16:47:58;565.75;;;272.38;;
57231;SDS011;43488;46.934;8.276;2022-09-27T16:50:27;537.35;;;348.85;;
57231;SDS011;43488;46.934;8.276;2022-09-27T16:53:13;564.47;;;261.65;;
57231;SDS011;43488;46.934;8.276;2022-09-27T16:55:40;525.38;;;324.75;;
57231;SDS011;43488;46.934;8.276;2022-09-27T16:58:08;560.97;;;259.92;;
57231;SDS011;43488;46.934;8.276;2022-09-27T17:00:37;536.15;;;343.63;;
57231;SDS011;43488;46.934;8.276;2022-09-27T17:03:07;532.97;;;344.20;;
57231;SDS011;43488;46.934;8.276;2022-09-27T17:05:34;541.67;;;240.90;;
57231;SDS011;43488;46.934;8.276;2022-09-27T17:08:01;551.70;;;247.45;;
57231;SDS011;43488;46.934;8.276;2022-09-27T17:10:30;536.15;;;341.40;;
57231;SDS011;43488;46.934;8.276;2022-09-27T17:12:58;557.03;;;256.02;;
57231;SDS011;43488;46.934;8.276;2022-09-27T17:15:27;528.88;;;335.02;;
57231;SDS011;43488;46.934;8.276;2022-09-27T17:17:56;550.47;;;254.50;;
57231;SDS011;43488;46.934;8.276;2022-09-27T17:20:23;531.33;;;339.48;;
57231;SDS011;43488;46.934;8.276;2022-09-27T17:22:50;546.13;;;249.73;;
57231;SDS011;43488;46.934;8.276;2022-09-27T17:25:18;521.65;;;320.23;;
57231;SDS011;43488;46.934;8.276;2022-09-27T17:27:45;520.40;;;324.98;;
57231;SDS011;43488;46.934;8.276;2022-09-27T17:30:12;526.10;;;334.08;;